Time;durP1;ratioP1;P1;durP2;ratioP2;P2;SDS_P1;SDS_P2;PMS_P1;PMS_P2;Temp;Humidity;BMP_temperature;BMP_pressure;BME280_temperature;BME280_humidity;BME280_pressure;Samples;Min_cycle;Max_cycle;Signal;HPM_P1;HPM_P2
2022/12/05 00:03:48;;;;;;;33.87;16.40;;;3.30;99.90;;;;;;6270273;22;20285;-86
2022/12/05 00:06:17;;;;;;;31.63;15.63;;;2.90;99.90;;;;;;6245680;23;20019;-86
2022/12/05 00:08:49;;;;;;;32.23;16.17;;;4.50;99.90;;;;;;6197965;23;20020;-87
2022/12/05 00:14:15;;;;;;;32.60;14.90;;;4.30;99.90;;;;;;6245121;23;20343;-86
2022/12/05 00:16:44;;;;;;;29.30;15.43;;;3.40;99.90;;;;;;6245108;23;20009;-86
2022/12/05 00:19:13;;;;;;;28.30;14.43;;;3.40;99.90;;;;;;6248009;23;20444;-87
2022/12/05 00:26:45;;;;;;;29.53;13.97;;;3.50;99.90;;;;;;6221170;23;20031;-87
2022/12/05 00:29:11;;;;;;;29.07;14.47;;;3.60;99.90;;;;;;6192543;23;20395;-87
2022/12/05 00:31:38;;;;;;;25.03;12.73;;;3.30;99.90;;;;;;6188948;23;20024;-86
2022/12/05 00:34:07;;;;;;;27.67;14.23;;;3.40;99.90;;;;;;6215186;23;20028;-86
2022/12/05 00:36:34;;;;;;;28.93;14.37;;;3.60;99.90;;;;;;6187454;23;20019;-87
2022/12/05 00:39:31;;;;;;;31.70;14.50;;;4.40;99.90;;;;;;6183650;22;20074;-86
2022/12/05 00:41:56;;;;;;;27.50;14.50;;;4.60;99.90;;;;;;6245409;23;20051;-86
2022/12/05 00:47:07;;;;;;;26.47;13.90;;;3.70;99.90;;;;;;6243864;22;20348;-87
2022/12/05 00:49:36;;;;;;;31.70;15.80;;;3.90;99.90;;;;;;6236551;22;20020;31
2022/12/05 00:52:04;;;;;;;30.27;14.90;;;4.60;99.90;;;;;;6158605;23;20029;-87
2022/12/05 00:55:42;;;;;;;30.20;15.40;;;3.40;99.90;;;;;;6205473;23;20023;-87
2022/12/05 00:58:10;;;;;;;30.23;15.50;;;5.00;99.90;;;;;;6218290;23;20074;-86
2022/12/05 01:00:39;;;;;;;28.97;15.07;;;4.90;99.90;;;;;;6220976;23;20028;-86
2022/12/05 01:03:20;;;;;;;32.23;16.10;;;2.80;99.90;;;;;;6218523;23;20092;-86
2022/12/05 01:05:54;;;;;;;32.17;15.03;;;3.80;99.90;;;;;;6218392;23;20099;-87
2022/12/05 01:08:34;;;;;;;30.93;16.07;;;3.50;99.90;;;;;;6218894;23;20016;-86
2022/12/05 01:11:12;;;;;;;31.17;16.97;;;4.20;99.90;;;;;;6220036;23;20055;-86
2022/12/05 01:17:18;;;;;;;30.73;15.83;;;3.70;99.90;;;;;;6100005;23;20018;-86
2022/12/05 01:19:48;;;;;;;31.97;16.23;;;4.70;99.90;;;;;;6099047;23;20022;-86
2022/12/05 01:22:31;;;;;;;30.90;16.20;;;4.60;99.90;;;;;;6125734;23;20400;-86
2022/12/05 01:25:00;;;;;;;33.00;16.53;;;5.60;99.90;;;;;;6099603;23;20400;-87
2022/12/05 01:27:29;;;;;;;35.33;17.30;;;;;;;;;;6125489;23;20041;-87
2022/12/05 01:29:58;;;;;;;32.67;16.83;;;3.80;99.90;;;;;;6100290;23;20018;-87
2022/12/05 01:32:24;;;;;;;29.47;15.40;;;3.80;99.90;;;;;;6099056;23;20018;-86
2022/12/05 01:35:25;;;;;;;32.77;17.43;;;5.50;99.90;;;;;;6100442;23;20367;-86
2022/12/05 01:37:59;;;;;;;33.73;16.97;;;3.40;99.90;;;;;;6079445;23;20014;-86
2022/12/05 01:40:37;;;;;;;34.77;16.07;;;5.50;99.90;;;;;;6126548;23;20431;-86
2022/12/05 01:43:31;;;;;;;32.13;16.47;;;3.20;99.90;;;;;;6127751;23;20041;-87
2022/12/05 01:46:05;;;;;;;37.90;18.67;;;3.30;99.90;;;;;;6072597;23;20014;-87
2022/12/05 01:48:34;;;;;;;31.15;16.50;;;5.20;99.90;;;;;;6126681;23;20014;-86
2022/12/05 01:51:06;;;;;;;32.03;16.50;;;5.30;99.90;;;;;;6127658;23;20029;-87
2022/12/05 01:56:47;;;;;;;36.83;17.48;;;4.00;99.90;;;;;;6128260;23;20553;-87
2022/12/05 01:59:34;;;;;;;33.77;16.97;;;4.80;99.90;;;;;;6101790;23;20010;-87
2022/12/05 02:02:00;;;;;;;34.83;17.47;;;5.20;99.90;;;;;;6105584;23;20026;-87
2022/12/05 02:04:47;;;;;;;33.07;17.43;;;3.80;99.90;;;;;;6127723;23;20390;-86
2022/12/05 02:07:13;;;;;;;36.80;17.20;;;4.70;99.90;;;;;;6101269;23;20085;-86
2022/12/05 02:10:13;;;;;;;35.20;17.53;;;4.00;99.90;;;;;;6100556;23;20049;-87
2022/12/05 02:13:05;;;;;;;35.70;17.53;;;3.60;99.90;;;;;;6157245;23;20103;-86
2022/12/05 02:16:07;;;;;;;36.60;18.73;;;4.90;99.90;;;;;;6229667;23;20017;-85
2022/12/05 02:19:15;;;;;;;33.67;17.88;;;3.20;99.90;;;;;;6081464;23;20435;-87
2022/12/05 02:22:17;;;;;;;37.83;19.00;;;3.90;99.90;;;;;;6216333;23;20040;-86
2022/12/05 02:25:20;;;;;;;34.60;17.67;;;3.80;99.90;;;;;;6214636;23;20388;-86
2022/12/05 02:28:23;;;;;;;36.87;18.83;;;4.90;99.90;;;;;;6214523;23;20028;-87
2022/12/05 02:41:40;;;;;;;36.50;18.37;;;3.90;99.90;;;;;;6111675;23;20480;-86
2022/12/05 02:44:37;;;;;;;37.83;18.67;;;3.90;99.90;;;;;;6216249;23;20020;-87
2022/12/05 02:47:38;;;;;;;36.23;18.17;;;3.90;99.90;;;;;;6219558;23;20471;-86
2022/12/05 02:50:19;;;;;;;40.83;19.40;;;4.00;99.90;;;;;;6214089;23;20016;-87
2022/12/05 02:52:57;;;;;;;36.63;17.13;;;4.00;99.90;;;;;;6215079;23;20019;-86
2022/12/05 02:55:34;;;;;;;36.10;18.30;;;4.70;99.90;;;;;;6216777;23;20100;-87
2022/12/05 02:58:44;;;;;;;37.33;18.33;;;4.20;99.90;;;;;;6214850;23;20024;-87
2022/12/05 03:01:10;;;;;;;39.00;18.67;;;4.60;99.90;;;;;;6152698;23;20032;-87
2022/12/05 03:03:51;;;;;;;36.93;17.67;;;4.00;99.90;;;;;;6128794;23;20014;-86
2022/12/05 03:06:49;;;;;;;35.77;17.13;;;3.70;99.90;;;;;;6152790;23;20337;-87
2022/12/05 03:09:47;;;;;;;37.67;19.00;;;4.10;99.90;;;;;;6113861;23;20177;-87
2022/12/05 03:12:41;;;;;;;38.27;18.77;;;4.00;99.90;;;;;;6127449;23;20029;-87
2022/12/05 03:15:39;;;;;;;34.97;17.80;;;4.20;99.90;;;;;;6202290;23;20020;-87
2022/12/05 03:21:56;;;;;;;38.20;18.23;;;3.30;99.90;;;;;;6219211;23;20039;-86
2022/12/05 03:24:59;;;;;;;37.63;17.80;;;5.70;99.90;;;;;;6246180;23;20064;-87
2022/12/05 03:27:59;;;;;;;39.87;18.90;;;4.20;99.90;;;;;;6246476;23;20012;-87
2022/12/05 03:30:47;;;;;;;;;;;;;;;;;;;;;
2022/12/05 03:34:22;;;;;;;36.03;17.90;;;3.40;99.90;;;;;;6047297;23;20018;-87
2022/12/05 03:43:37;;;;;;;;;;;;;;;;;;;;;
2022/12/05 03:47:22;;;;;;;34.97;17.30;;;5.10;99.90;;;;;;6162607;23;20345;-86
2022/12/05 03:50:25;;;;;;;37.13;18.30;;;4.10;99.90;;;;;;6245563;23;20027;-87
2022/12/05 03:56:49;;;;;;;;;;;;;;;;;;;;;
2022/12/05 03:59:48;;;;;;;40.13;17.13;;;4.70;99.90;;;;;;6091191;23;20354;-87
2022/12/05 04:05:22;;;;;;;;;;;;;;;;;;;;;
2022/12/05 04:08:37;;;;;;;35.70;17.67;;;4.00;99.90;;;;;;6248121;22;20015;-87
2022/12/05 04:11:32;;;;;;;;;;;;;;;;;;;;;
2022/12/05 04:42:32;;;;;;;41.33;18.03;;;5.30;99.90;;;;;;6241894;22;20274;-87
2022/12/05 04:45:30;;;;;;;34.83;16.53;;;4.80;99.90;;;;;;6148407;23;20016;-87
2022/12/05 04:51:49;;;;;;;;;;;;;;;;;;;;;
2022/12/05 04:58:36;;;;;;;39.83;17.67;;;4.30;99.90;;;;;;6217586;23;20024;-87
2022/12/05 05:04:49;;;;;;;39.63;16.97;;;3.80;99.90;;;;;;6218956;23;20374;-87
2022/12/05 05:11:10;;;;;;;42.13;17.40;;;4.00;99.90;;;;;;6102268;23;20045;-87
2022/12/05 05:17:33;;;;;;;38.20;18.10;;;5.10;99.90;;;;;;6067323;23;20033;-87
2022/12/05 05:24:22;;;;;;;38.22;18.00;;;4.30;99.90;;;;;;6116766;23;20405;-89
2022/12/05 05:31:08;;;;;;;36.57;16.90;;;3.50;99.90;;;;;;6182929;23;20024;-89
2022/12/05 05:54:18;;;;;;;;;;;;;;;;;;;;;
2022/12/05 05:57:13;;;;;;;31.33;14.60;;;4.20;99.90;;;;;;6276410;22;20026;-91
2022/12/05 06:02:16;;;;;;;30.73;15.17;;;4.30;99.90;;;;;;6132541;23;20056;-89
2022/12/05 06:04:41;;;;;;;29.07;14.37;;;4.00;99.90;;;;;;6132750;23;20468;-90
2022/12/05 06:07:18;;;;;;;27.70;13.97;;;4.40;99.90;;;;;;6156822;23;20045;-90
2022/12/05 06:09:44;;;;;;;30.33;14.60;;;4.20;99.90;;;;;;6131357;23;20021;-91
2022/12/05 06:12:16;;;;;;;29.20;13.53;;;5.40;99.90;;;;;;6130485;23;20160;-89
2022/12/05 06:14:49;;;;;;;27.80;14.23;;;4.30;99.90;;;;;;6156825;23;20460;-89
2022/12/05 06:18:06;;;;;;;28.67;14.63;;;3.80;99.90;;;;;;6171818;23;20020;-89
2022/12/05 06:20:35;;;;;;;29.57;14.10;;;5.50;99.90;;;;;;6224857;22;20098;-91
2022/12/05 06:23:04;;;;;;;30.27;14.30;;;5.30;99.90;;;;;;6171462;23;20020;-91
2022/12/05 06:26:34;;;;;;;28.60;14.63;;;6.00;99.90;;;;;;6220598;23;20016;-90
2022/12/05 06:29:15;;;;;;;29.57;13.97;;;4.50;99.90;;;;;;6068758;23;20023;-90
2022/12/05 06:32:38;;;;;;;;;;;;;;;;;;;;;
2022/12/05 06:36:22;;;;;;;28.43;13.50;;;5.30;99.90;;;;;;6084479;22;20012;-91
2022/12/05 06:39:03;;;;;;;26.63;12.00;;;5.10;99.90;;;;;;6255169;22;20094;-91
2022/12/05 06:41:41;;;;;;;26.43;12.10;;;4.40;99.90;;;;;;6187461;23;20493;-90
2022/12/05 06:44:25;;;;;;;25.30;12.70;;;4.30;99.90;;;;;;6159828;23;20044;-91
2022/12/05 06:46:55;;;;;;;27.63;13.13;;;3.80;99.90;;;;;;6163216;23;20017;-91
2022/12/05 06:49:35;;;;;;;;;;;;;;;;;;;;;
2022/12/05 06:52:50;;;;;;;26.77;12.90;;;4.40;99.90;;;;;;6071354;23;20519;-91
2022/12/05 06:55:21;;;;;;;27.00;12.37;;;5.30;99.90;;;;;;6137426;23;20028;-90
2022/12/05 06:57:47;;;;;;;26.47;12.63;;;4.30;99.90;;;;;;6185424;23;20048;-90
2022/12/05 07:03:34;;;;;;;29.10;12.47;;;4.40;99.90;;;;;;6185093;23;20575;-90
2022/12/05 07:06:12;;;;;;;28.73;13.10;;;4.10;99.90;;;;;;6172659;23;20470;-90
2022/12/05 08:05:38;;;;;;;15.23;6.22;;;5.50;99.90;;;;;;6286309;22;20065;-85
2022/12/05 08:22:42;;;;;;;13.13;5.73;;;4.50;99.90;;;;;;6246825;23;20099;-86
2022/12/05 09:11:05;;;;;;;;;;;;;;;;;;;;;
2022/12/05 09:14:04;;;;;;;14.37;6.57;;;4.70;99.90;;;;;;6088785;23;20017;-85
2022/12/05 09:16:57;;;;;;;14.17;6.63;;;4.90;99.90;;;;;;6122978;23;20097;-85
2022/12/05 09:19:37;;;;;;;13.03;6.23;;;5.50;99.90;;;;;;6162669;23;20012;-83
2022/12/05 09:22:14;;;;;;;14.17;6.93;;;4.10;99.90;;;;;;6218555;23;20016;-85
2022/12/05 09:25:45;;;;;;;14.60;6.67;;;4.60;99.90;;;;;;6245218;23;20107;-86
2022/12/05 09:28:48;;;;;;;13.17;6.77;;;5.30;99.90;;;;;;6097567;23;20061;-87
2022/12/05 09:31:20;;;;;;;16.23;7.73;;;5.70;99.90;;;;;;6034722;23;20340;-85
2022/12/05 09:34:11;;;;;;;;;;;;;;;;;;;;;
2022/12/05 09:37:05;;;;;;;15.30;7.33;;;4.60;99.90;;;;;;5975967;23;20139;-85
2022/12/05 09:39:31;;;;;;;14.43;7.47;;;4.20;99.90;;;;;;6059113;23;20030;-85
2022/12/05 09:42:34;;;;;;;14.70;7.20;;;4.70;99.90;;;;;;6069604;23;20010;-84
2022/12/05 09:45:45;;;;;;;15.30;7.20;;;4.70;99.90;;;;;;6068685;23;20054;-85
2022/12/05 09:55:52;;;;;;;17.10;8.20;;;6.00;99.90;;;;;;6103842;23;20096;-85
2022/12/05 09:58:47;;;;;;;17.30;7.43;;;5.60;99.90;;;;;;6136302;23;20027;-84
2022/12/05 10:01:30;;;;;;;17.30;7.87;;;4.30;99.90;;;;;;6214215;23;20066;-84
2022/12/05 10:04:30;;;;;;;16.60;7.83;;;4.60;99.90;;;;;;6212650;23;20027;-84
2022/12/05 10:07:14;;;;;;;16.20;7.50;;;4.60;99.90;;;;;;6202910;23;20016;-84
2022/12/05 10:10:17;;;;;;;16.17;7.90;;;4.60;99.90;;;;;;6214405;23;20043;-84
2022/12/05 10:13:01;;;;;;;17.40;8.57;;;4.60;99.90;;;;;;6215685;23;20017;-84
2022/12/05 10:15:34;;;;;;;18.17;8.32;;;4.60;99.90;;;;;;6213834;23;20028;-83
2022/12/05 10:18:12;;;;;;;18.13;8.17;;;4.60;99.90;;;;;;6216058;23;20024;-84
2022/12/05 10:20:52;;;;;;;17.00;7.63;;;4.60;99.90;;;;;;6211216;23;20332;-85
2022/12/05 10:23:57;;;;;;;20.60;9.27;;;4.60;99.90;;;;;;6213992;23;20099;-86
2022/12/05 10:30:26;;;;;;;17.30;8.33;;;4.80;99.90;;;;;;6276235;22;20029;-85
2022/12/05 10:33:39;;;;;;;19.77;9.43;;;4.50;99.90;;;;;;6124181;23;20025;-85
2022/12/05 10:43:31;;;;;;;17.47;8.30;;;3.40;99.90;;;;;;6036348;23;20119;-89
2022/12/05 10:49:23;;;;;;;19.73;9.00;;;5.00;99.90;;;;;;5983608;23;20107;-86
2022/12/05 10:52:15;;;;;;;18.07;8.93;;;4.60;99.90;;;;;;5985656;23;20413;-87
2022/12/05 10:55:01;;;;;;;19.67;8.23;;;4.70;99.90;;;;;;6030495;23;20071;-86
2022/12/05 11:19:20;;;;;;;17.80;8.20;;;4.60;99.90;;;;;;6214863;22;20024;-90
2022/12/05 11:22:16;;;;;;;21.23;8.60;;;4.60;99.90;;;;;;6129413;23;20061;-88
2022/12/05 11:24:47;;;;;;;19.33;8.37;;;4.80;99.90;;;;;;6122693;23;20041;-86
2022/12/05 11:27:16;;;;;;;17.73;7.37;;;4.40;99.90;;;;;;6170194;23;20016;-85
2022/12/05 11:30:13;;;;;;;17.97;8.07;;;5.30;99.90;;;;;;6223034;23;20024;-86
2022/12/05 11:32:39;;;;;;;;;;;4.50;99.90;;;;;;6220374;23;20078;-86
2022/12/05 11:35:10;;;;;;;19.37;7.93;;;4.10;99.90;;;;;;6245150;23;19916;-86
2022/12/05 11:38:04;;;;;;;17.17;7.87;;;5.60;99.90;;;;;;6244720;23;20876;-85
2022/12/05 11:40:55;;;;;;;17.88;7.70;;;4.60;99.90;;;;;;6218659;23;20047;-85
2022/12/05 11:43:42;;;;;;;17.90;7.50;;;4.40;99.90;;;;;;6217874;23;20020;-85
2022/12/05 11:47:04;;;;;;;;;;;;;;;;;;;;;
2022/12/05 12:13:04;;;;;;;15.93;6.43;;;5.50;99.90;;;;;;6246323;23;20086;-87
2022/12/05 17:04:23;;;;;;;17.57;8.93;;;5.20;99.90;;;;;;6243506;23;20027;-88
2022/12/05 17:10:45;;;;;;;;;;;3.80;99.90;;;;;;6241613;23;20028;-88
2022/12/05 17:13:25;;;;;;;13.60;6.00;;;4.60;99.90;;;;;;6246327;23;19916;-88
2022/12/05 17:16:52;;;;;;;15.57;6.47;;;5.20;99.90;;;;;;6226689;23;20332;-88
2022/12/05 17:19:22;;;;;;;15.80;6.50;;;3.40;99.90;;;;;;6098521;23;20052;-87
2022/12/05 17:36:24;;;;;;;15.87;6.43;;;5.40;99.90;;;;;;6247287;22;20024;-86
2022/12/05 17:39:19;;;;;;;13.97;5.87;;;4.40;99.90;;;;;;6249356;22;20012;-86
2022/12/05 20:35:48;;;;;;;;;;;;;;;;;;;;;
2022/12/05 20:41:39;;;;;;;18.30;7.97;;;5.10;99.90;;;;;;6216840;23;19998;-88
2022/12/05 20:45:04;;;;;;;22.03;10.00;;;4.30;99.90;;;;;;6211450;23;20436;-88
2022/12/05 20:48:01;;;;;;;21.97;11.07;;;5.00;99.90;;;;;;6084947;23;20023;-86
2022/12/05 20:53:20;;;;;;;24.47;10.00;;;4.40;99.90;;;;;;6245489;22;20363;-87
2022/12/05 21:04:03;;;;;;;21.57;7.77;;;4.30;99.90;;;;;;6204924;22;20031;-87
2022/12/05 21:11:50;;;;;;;20.53;8.27;;;4.10;99.90;;;;;;6156899;23;20032;-87
2022/12/05 21:27:15;;;;;;;20.20;9.37;;;3.60;99.90;;;;;;6121431;23;20472;-86
2022/12/05 21:30:21;;;;;;;;;;;;;;;;;;;;;
2022/12/05 21:36:00;;;;;;;26.40;10.93;;;4.30;99.90;;;;;;6209127;22;20074;-86
2022/12/05 21:39:10;;;;;;;22.10;10.40;;;4.40;99.90;;;;;;6248753;22;20016;-87
2022/12/05 21:44:55;;;;;;;23.07;11.47;;;4.30;99.90;;;;;;6246929;22;20424;-86
2022/12/05 21:47:27;;;;;;;21.07;9.40;;;5.00;99.90;;;;;;6099269;23;20057;-87
2022/12/05 21:50:25;;;;;;;22.87;10.37;;;4.60;99.90;;;;;;6099879;23;20029;-86
2022/12/05 21:59:01;;;;;;;23.50;10.53;;;4.40;99.90;;;;;;6203874;23;20059;-87
2022/12/05 22:14:11;;;;;;;26.17;15.73;;;4.30;99.90;;;;;;6199664;22;20229;-88
2022/12/05 22:47:03;;;;;;;23.03;10.00;;;3.60;99.90;;;;;;5897840;24;20074;-87
2022/12/05 22:50:12;;;;;;;28.93;10.77;;;4.90;99.90;;;;;;5837483;24;20042;-86
2022/12/05 22:57:27;;;;;;;21.97;9.10;;;4.50;99.90;;;;;;5850171;24;20026;-87
2022/12/05 23:00:40;;;;;;;25.30;9.23;;;3.80;99.90;;;;;;5931830;24;20019;-86
2022/12/05 23:03:50;;;;;;;;;;;;;;;;;;;;;
2022/12/05 23:07:08;;;;;;;24.57;9.27;;;4.40;99.90;;;;;;5980411;23;19917;-86
2022/12/05 23:13:13;;;;;;;20.67;7.77;;;4.40;99.90;;;;;;6127195;23;20026;-86
2022/12/05 23:19:47;;;;;;;18.47;7.77;;;5.00;99.90;;;;;;6243128;23;20028;-86
2022/12/05 23:22:15;;;;;;;18.83;8.17;;;3.80;99.90;;;;;;6244808;23;20162;-86
2022/12/05 23:24:57;;;;;;;21.93;8.03;;;6.00;99.90;;;;;;6218785;23;20016;-86
2022/12/05 23:27:22;;;;;;;23.90;7.73;;;4.60;99.90;;;;;;6211458;23;20266;-86
2022/12/05 23:33:23;;;;;;;23.83;8.20;;;6.00;99.90;;;;;;6215515;23;20082;-85
2022/12/05 23:35:55;;;;;;;23.03;8.30;;;5.70;99.90;;;;;;6215063;23;20017;-86
2022/12/05 23:38:26;;;;;;;25.17;8.37;;;5.70;99.90;;;;;;6215554;23;20379;-88
2022/12/05 23:47:38;;;;;;;22.17;8.27;;;4.40;99.90;;;;;;6138671;23;20025;-87
2022/12/05 23:50:04;;;;;;;22.73;8.10;;;4.40;99.90;;;;;;6228315;22;20099;-88
2022/12/05 23:52:43;;;;;;;25.40;8.53;;;4.40;99.90;;;;;;6245613;23;20035;-85
2022/12/05 23:55:15;;;;;;;20.03;7.57;;;4.50;99.90;;;;;;6218921;23;20008;-85
2022/12/05 23:57:43;;;;;;;20.93;8.37;;;6.20;99.90;;;;;;6214029;23;20031;-85
